createdAt,value
2017-10-25T13:38:26.865Z,32
2017-10-25T13:39:35.936Z,40
2017-10-25T13:40:44.976Z,48
2017-10-25T13:41:54.010Z,48
2017-10-25T13:43:03.037Z,44
2017-10-25T13:44:12.413Z,40
2017-10-25T13:45:22.105Z,44
2017-10-25T13:46:31.135Z,48
2017-10-25T13:47:39.835Z,40
2017-10-25T13:48:49.195Z,36
2017-10-25T13:49:57.902Z,32
2017-10-25T13:51:06.920Z,36
2017-10-25T13:52:16.284Z,40
2017-10-25T13:53:25.647Z,40
2017-10-25T13:54:35.017Z,36
2017-10-25T13:55:44.376Z,32
2017-10-25T13:56:53.077Z,32
2017-10-25T13:58:02.435Z,32
2017-10-25T13:59:11.134Z,32
2017-10-25T14:00:20.514Z,28
2017-10-25T14:01:29.881Z,36
2017-10-25T14:02:38.907Z,36
2017-10-25T14:03:47.608Z,36
2017-10-25T14:04:56.649Z,44
2017-10-25T14:06:06.008Z,48
2017-10-25T14:07:14.705Z,48
2017-10-25T14:08:24.091Z,40
2017-10-25T14:09:33.114Z,40
2017-10-25T14:10:42.138Z,44
2017-10-25T14:11:51.171Z,44
2017-10-25T14:13:00.532Z,44
2017-10-25T14:14:09.562Z,40
2017-10-25T14:15:18.922Z,36
2017-10-25T14:16:27.618Z,36
2017-10-25T14:17:36.979Z,32
2017-10-25T14:18:45.680Z,36
2017-10-25T14:19:54.715Z,36
2017-10-25T14:21:04.087Z,28
2017-10-25T14:22:12.782Z,32
2017-10-25T14:23:21.480Z,32
2017-10-25T14:24:30.511Z,28
2017-10-25T14:25:39.548Z,28
2017-10-25T14:26:49.580Z,28
2017-10-25T14:27:58.275Z,20
2017-10-25T14:29:07.688Z,24
2017-10-25T14:30:17.048Z,24
2017-10-25T14:31:26.740Z,28
2017-10-25T14:32:35.441Z,28
2017-10-25T14:33:44.485Z,28
2017-10-25T14:34:53.853Z,28
2017-10-25T14:36:02.548Z,24
2017-10-25T14:37:12.248Z,20
2017-10-25T14:38:21.282Z,20
2017-10-25T14:39:30.310Z,20
2017-10-25T14:40:39.347Z,20
2017-10-25T14:41:48.377Z,20
2017-10-25T14:42:58.064Z,16
2017-10-25T14:44:07.095Z,20
2017-10-25T14:45:16.121Z,16
2017-10-25T14:46:25.485Z,16
2017-10-25T14:47:35.522Z,16
2017-10-25T14:48:45.577Z,16
2017-10-25T14:49:54.597Z,16
2017-10-25T14:51:04.288Z,16
2017-10-25T14:52:13.316Z,16
2017-10-25T14:53:23.012Z,12
2017-10-25T14:54:32.093Z,12
2017-10-25T14:55:41.126Z,12
2017-10-25T14:56:49.823Z,12
2017-10-25T14:57:59.524Z,12
2017-10-25T14:59:08.229Z,8
2017-10-25T15:00:17.593Z,8
2017-10-25T15:01:26.968Z,12
2017-10-25T15:02:36.667Z,12
2017-10-25T15:03:45.364Z,12
2017-10-25T15:04:54.738Z,12
2017-10-25T15:06:03.773Z,12
2017-10-25T15:07:13.142Z,8
2017-10-25T15:08:22.507Z,8
2017-10-25T15:09:31.539Z,12
2017-10-25T15:10:40.570Z,12
2017-10-25T15:11:49.931Z,8
2017-10-25T15:12:59.298Z,8
2017-10-25T15:14:08.328Z,12
2017-10-25T15:15:17.353Z,12
2017-10-25T15:16:26.051Z,8
2017-10-25T15:17:35.086Z,8
2017-10-25T15:18:44.450Z,8
2017-10-25T15:19:53.484Z,8
2017-10-25T15:21:02.856Z,12
2017-10-25T15:22:12.585Z,8
2017-10-25T15:23:21.619Z,12
2017-10-25T15:24:30.651Z,12
2017-10-25T15:25:39.683Z,8
2017-10-25T15:26:49.048Z,8
2017-10-25T15:27:57.745Z,8
2017-10-25T15:29:07.108Z,12
2017-10-25T15:30:15.810Z,8
2017-10-25T15:31:24.848Z,4
2017-10-25T15:32:33.876Z,8
2017-10-25T15:33:42.576Z,4
2017-10-25T15:34:51.604Z,8
2017-10-25T15:36:00.644Z,4
2017-10-25T15:37:10.006Z,4
2017-10-25T15:38:18.709Z,8
2017-10-25T15:39:27.744Z,8
2017-10-25T15:40:37.114Z,8
2017-10-25T15:41:46.145Z,8
2017-10-25T15:42:55.522Z,4
2017-10-25T15:44:04.892Z,4
2017-10-25T15:45:13.925Z,4
2017-10-25T15:46:22.625Z,4
2017-10-25T15:47:31.989Z,4
2017-10-25T15:48:41.350Z,8
2017-10-25T15:49:50.712Z,4
2017-10-25T15:50:59.743Z,8
2017-10-25T15:52:09.432Z,4
2017-10-25T15:53:18.799Z,4
2017-10-25T15:54:28.178Z,4
2017-10-25T15:55:37.872Z,4
2017-10-25T15:56:47.250Z,4
2017-10-25T15:57:56.288Z,4
2017-10-25T15:59:05.653Z,4
2017-10-25T16:00:14.354Z,4
2017-10-25T16:01:24.381Z,4
2017-10-25T16:02:33.754Z,4
2017-10-25T16:03:43.457Z,0
2017-10-25T16:04:52.491Z,4
2017-10-25T16:06:01.855Z,0
2017-10-25T16:07:11.220Z,0
2017-10-25T16:08:20.249Z,4
2017-10-25T16:09:29.281Z,4
2017-10-25T16:10:38.655Z,4
2017-10-25T16:11:47.682Z,0
2017-10-25T16:12:57.039Z,4
2017-10-25T16:14:05.738Z,0
2017-10-25T16:15:15.110Z,0
2017-10-25T16:16:24.138Z,0
2017-10-25T16:17:33.512Z,0
2017-10-25T16:18:42.870Z,0
2017-10-25T16:19:51.896Z,0
2017-10-25T16:21:01.919Z,0
2017-10-25T16:22:10.951Z,0
2017-10-25T16:23:20.317Z,0
2017-10-25T16:24:29.693Z,0
2017-10-25T16:25:38.727Z,0
2017-10-25T16:26:48.426Z,0
2017-10-25T16:27:57.845Z,0
2017-10-25T16:29:07.212Z,0
2017-10-25T16:30:16.240Z,0
2017-10-25T16:31:25.607Z,0
2017-10-25T16:32:34.642Z,0
2017-10-25T16:33:43.677Z,0
2017-10-25T16:34:52.705Z,0
2017-10-25T16:36:01.741Z,0
2017-10-25T16:37:11.424Z,0
2017-10-25T16:38:20.464Z,0
2017-10-25T16:39:29.162Z,0
2017-10-25T16:40:38.197Z,0
2017-10-25T16:41:47.227Z,0
2017-10-25T16:42:56.598Z,0
2017-10-25T16:44:05.636Z,0
2017-10-25T16:45:14.683Z,0
2017-10-25T16:46:23.707Z,0
2017-10-25T16:47:32.743Z,0
2017-10-25T16:48:41.774Z,0
2017-10-25T16:49:51.490Z,0
2017-10-25T16:51:00.529Z,0
2017-10-25T16:52:09.558Z,0
2017-10-25T16:53:18.259Z,0
2017-10-25T16:54:27.286Z,0
2017-10-25T16:55:36.316Z,0
2017-10-25T16:56:45.012Z,0
2017-10-25T16:57:54.042Z,0
2017-10-25T16:59:03.411Z,0
2017-10-25T17:00:12.776Z,0
2017-10-25T17:01:22.140Z,0
2017-10-25T17:02:31.837Z,0
2017-10-25T17:03:40.857Z,0
2017-10-25T17:04:49.889Z,0
2017-10-25T17:05:59.245Z,0
2017-10-25T17:07:08.946Z,0
2017-10-25T17:08:17.644Z,0
2017-10-25T17:09:26.676Z,0
2017-10-25T17:10:35.382Z,0
2017-10-25T17:11:44.082Z,0
2017-10-25T17:12:52.780Z,0
2017-10-25T17:14:02.167Z,0
2017-10-25T17:15:11.529Z,0
2017-10-25T17:16:20.229Z,0
2017-10-25T17:17:29.258Z,0
2017-10-25T17:18:38.621Z,0
2017-10-25T17:19:47.648Z,0
2017-10-25T17:20:56.344Z,0
2017-10-25T17:22:05.043Z,0
2017-10-25T17:23:14.077Z,0
2017-10-25T17:24:23.106Z,0
2017-10-25T17:25:32.147Z,0
2017-10-25T17:26:41.177Z,0
2017-10-25T17:27:49.877Z,0
2017-10-25T17:28:59.253Z,0
2017-10-25T17:30:08.621Z,0
2017-10-25T17:31:18.318Z,0
2017-10-25T17:32:28.349Z,0
2017-10-25T17:33:37.710Z,0
2017-10-25T17:34:47.070Z,0
2017-10-25T17:35:56.428Z,0
2017-10-25T17:37:05.130Z,0
2017-10-25T17:38:14.832Z,0
2017-10-25T17:39:23.863Z,0
2017-10-25T17:40:32.559Z,0
2017-10-25T17:41:41.256Z,0
2017-10-25T17:42:50.612Z,0
2017-10-25T17:43:59.306Z,0
2017-10-25T17:45:08.675Z,0
2017-10-25T17:46:17.700Z,0
2017-10-25T17:47:27.396Z,0
2017-10-25T17:48:36.092Z,0
2017-10-25T17:49:44.793Z,0
2017-10-25T17:50:54.150Z,0
2017-10-25T17:52:02.850Z,0
2017-10-25T17:53:11.550Z,0
2017-10-25T17:54:20.587Z,0
2017-10-25T17:55:29.285Z,0
2017-10-25T17:56:38.323Z,0
2017-10-25T17:57:47.717Z,0
2017-10-25T17:58:56.748Z,0
2017-10-25T18:00:05.783Z,0
2017-10-25T18:01:14.477Z,0
2017-10-25T18:02:23.173Z,0
2017-10-25T18:03:32.204Z,0
2017-10-25T18:04:41.569Z,0
2017-10-25T18:05:51.315Z,0
2017-10-25T18:07:00.001Z,0
2017-10-25T18:08:08.697Z,0
2017-10-25T18:09:17.398Z,0
2017-10-25T18:10:26.429Z,0
2017-10-25T18:11:35.130Z,0
2017-10-25T18:12:43.823Z,0
2017-10-25T18:13:52.522Z,0
2017-10-25T18:15:01.217Z,0
2017-10-25T18:16:10.252Z,0
2017-10-25T18:17:19.613Z,0
2017-10-25T18:18:28.646Z,0
2017-10-25T18:19:38.014Z,0
2017-10-25T18:20:47.041Z,0
2017-10-25T18:21:55.737Z,0
2017-10-25T18:23:04.766Z,0
2017-10-25T18:24:14.125Z,0
2017-10-25T18:25:23.152Z,0
2017-10-25T18:26:32.514Z,0
2017-10-25T18:27:41.217Z,0
2017-10-25T18:28:50.243Z,0
2017-10-25T18:29:58.943Z,0
2017-10-25T18:31:07.969Z,0
2017-10-25T18:32:17.014Z,0
2017-10-25T18:33:26.710Z,0
2017-10-25T18:34:36.067Z,0
2017-10-25T18:35:45.103Z,0
2017-10-25T18:36:54.132Z,0
2017-10-25T18:38:03.160Z,0
2017-10-25T18:39:12.865Z,0
2017-10-25T18:40:21.900Z,0
2017-10-25T18:41:31.599Z,0
2017-10-25T18:42:40.634Z,0
2017-10-25T18:43:49.664Z,0
2017-10-25T18:44:58.695Z,0
2017-10-25T18:46:08.723Z,0
2017-10-25T18:47:18.423Z,0
2017-10-25T18:48:27.781Z,0
2017-10-25T18:49:36.477Z,0
2017-10-25T18:50:45.176Z,0
2017-10-25T18:51:54.537Z,0
2017-10-25T18:53:03.237Z,0
2017-10-25T18:54:12.270Z,0
2017-10-25T18:55:21.298Z,0
2017-10-25T18:56:30.328Z,0
2017-10-25T18:57:39.360Z,0
2017-10-25T18:58:48.875Z,0
2017-10-25T18:59:58.240Z,0
2017-10-25T19:01:07.607Z,0
2017-10-25T19:02:17.320Z,0
2017-10-25T19:03:26.351Z,0
2017-10-25T19:04:35.379Z,0
2017-10-25T19:05:44.413Z,0
2017-10-25T19:06:53.113Z,0
2017-10-25T19:08:02.481Z,0
2017-10-25T19:09:11.992Z,0
2017-10-25T19:10:21.352Z,0
2017-10-25T19:11:30.052Z,0
2017-10-25T19:12:39.422Z,0
2017-10-25T19:13:48.454Z,0
2017-10-25T19:14:57.149Z,0
2017-10-25T19:16:06.179Z,0
2017-10-25T19:17:15.539Z,0
2017-10-25T19:18:24.567Z,0
2017-10-25T19:19:33.599Z,0
2017-10-25T19:20:42.632Z,0
2017-10-25T19:21:51.665Z,0
2017-10-25T19:23:01.368Z,0
2017-10-25T19:24:10.062Z,0
2017-10-25T19:25:19.095Z,0
2017-10-25T19:26:28.461Z,0
2017-10-25T19:27:37.824Z,0
2017-10-25T19:28:47.186Z,0
2017-10-25T19:29:56.549Z,0
2017-10-25T19:31:05.580Z,0
2017-10-25T19:32:14.617Z,0
2017-10-25T19:33:23.647Z,0
2017-10-25T19:34:32.342Z,0
2017-10-25T19:35:41.703Z,0
2017-10-25T19:36:50.398Z,0
2017-10-25T19:37:59.766Z,0
2017-10-25T19:39:09.126Z,0
2017-10-25T19:40:18.821Z,0
2017-10-25T19:41:27.849Z,0
2017-10-25T19:42:37.209Z,0
2017-10-25T19:43:45.909Z,0
2017-10-25T19:44:55.621Z,0
2017-10-25T19:46:04.651Z,0
2017-10-25T19:47:13.693Z,0
2017-10-25T19:48:23.056Z,0
2017-10-25T19:49:32.089Z,0
2017-10-25T19:50:40.783Z,0
2017-10-25T19:51:50.477Z,0
2017-10-25T19:53:00.183Z,0
2017-10-25T19:54:09.559Z,0
2017-10-25T19:55:18.591Z,0
2017-10-25T19:56:27.952Z,0
2017-10-25T19:57:37.312Z,0
2017-10-25T19:58:46.346Z,0
2017-10-25T19:59:55.046Z,0
2017-10-25T20:01:03.744Z,0
2017-10-25T20:02:13.447Z,0
2017-10-25T20:03:22.489Z,0
2017-10-25T20:04:31.531Z,0
2017-10-25T20:05:40.560Z,0
2017-10-25T20:06:50.256Z,0
2017-10-25T20:08:00.301Z,0
2017-10-25T20:09:09.996Z,0
2017-10-25T20:10:18.694Z,0
2017-10-25T20:11:28.069Z,0
2017-10-25T20:12:37.100Z,0
2017-10-25T20:13:45.794Z,0
2017-10-25T20:14:55.157Z,0
2017-10-25T20:16:04.188Z,0
2017-10-25T20:17:12.886Z,0
2017-10-25T20:18:22.260Z,0
2017-10-25T20:19:31.622Z,0
2017-10-25T20:20:41.319Z,0
2017-10-25T20:21:50.689Z,0
2017-10-25T20:23:00.389Z,0
2017-10-25T20:24:09.422Z,0
2017-10-25T20:25:18.123Z,0
2017-10-25T20:26:27.501Z,0
2017-10-25T20:27:37.183Z,0
2017-10-25T20:28:46.542Z,0
2017-10-25T20:29:56.242Z,0
2017-10-25T20:31:05.606Z,0
2017-10-25T20:32:14.651Z,0
2017-10-25T20:33:23.686Z,0
2017-10-25T20:34:33.386Z,0
2017-10-25T20:35:42.747Z,0
2017-10-25T20:36:51.779Z,0
2017-10-25T20:38:01.138Z,0
2017-10-25T20:39:10.172Z,0
2017-10-25T20:40:18.874Z,0
2017-10-25T20:41:28.238Z,0
2017-10-25T20:42:37.602Z,0
2017-10-25T20:43:46.306Z,0
2017-10-25T20:44:54.999Z,0
2017-10-25T20:46:04.033Z,0
2017-10-25T20:47:12.727Z,0
2017-10-25T20:48:21.757Z,0
2017-10-25T20:49:31.122Z,0
2017-10-25T20:50:40.481Z,0
2017-10-25T20:51:49.181Z,0
2017-10-25T20:52:58.216Z,0
2017-10-25T20:54:06.926Z,0
2017-10-25T20:55:15.623Z,0
2017-10-25T20:56:24.995Z,0
2017-10-25T20:57:34.022Z,0
2017-10-25T20:58:43.051Z,0
2017-10-25T20:59:52.079Z,0
2017-10-25T21:01:02.125Z,0
2017-10-25T21:02:11.160Z,0
2017-10-25T21:03:20.189Z,0
2017-10-25T21:04:28.890Z,0
2017-10-25T21:05:37.917Z,0
2017-10-25T21:06:46.945Z,0
2017-10-25T21:07:55.643Z,0
2017-10-25T21:09:04.673Z,0
2017-10-25T21:10:14.034Z,0
2017-10-25T21:11:23.405Z,0
2017-10-25T21:12:32.687Z,0
2017-10-25T21:13:42.048Z,0
2017-10-25T21:14:51.407Z,0
2017-10-25T21:16:00.762Z,0
2017-10-25T21:17:09.787Z,0
2017-10-25T21:18:18.484Z,0
2017-10-25T21:19:28.190Z,0
2017-10-25T21:20:36.886Z,0
2017-10-25T21:21:46.598Z,0
2017-10-25T21:22:55.501Z,0
2017-10-25T21:24:04.201Z,0
2017-10-25T21:25:13.564Z,0
2017-10-25T21:26:22.932Z,0
2017-10-25T21:27:31.961Z,0
2017-10-25T21:28:41.329Z,0
2017-10-25T21:29:50.026Z,0
2017-10-25T21:30:59.065Z,0
2017-10-25T21:32:07.767Z,0
2017-10-25T21:33:16.811Z,0
2017-10-25T21:34:26.190Z,0
2017-10-25T21:35:35.224Z,0
2017-10-25T21:36:44.261Z,0
2017-10-25T21:37:52.959Z,0
2017-10-25T21:39:01.657Z,0
2017-10-25T21:40:10.697Z,0
2017-10-25T21:41:19.728Z,0
2017-10-25T21:42:28.764Z,0
2017-10-25T21:43:38.129Z,0
2017-10-25T21:44:47.156Z,0
2017-10-25T21:45:56.879Z,0
2017-10-25T21:47:05.904Z,0
2017-10-25T21:48:14.932Z,0
2017-10-25T21:49:23.963Z,0
2017-10-25T21:50:32.999Z,0
2017-10-25T21:51:42.028Z,0
2017-10-25T21:52:50.729Z,0
2017-10-25T21:53:59.436Z,0
2017-10-25T21:55:08.470Z,0
2017-10-25T21:56:17.839Z,0
2017-10-25T21:57:26.868Z,0
2017-10-25T21:58:35.564Z,0
2017-10-25T21:59:44.926Z,0
2017-10-25T22:00:53.623Z,0
2017-10-25T22:02:02.318Z,0
2017-10-25T22:03:11.015Z,0
2017-10-25T22:04:20.052Z,0
2017-10-25T22:05:28.748Z,0
2017-10-25T22:06:38.444Z,0
2017-10-25T22:07:47.472Z,0
2017-10-25T22:08:56.834Z,0
2017-10-25T22:10:05.870Z,0
2017-10-25T22:11:14.570Z,0
2017-10-25T22:12:23.602Z,0
2017-10-25T22:13:32.302Z,0
2017-10-25T22:14:41.669Z,0
2017-10-25T22:15:51.033Z,0
2017-10-25T22:16:59.726Z,0
2017-10-25T22:18:08.425Z,0
2017-10-25T22:19:18.124Z,0
2017-10-25T22:20:26.823Z,0
2017-10-25T22:21:35.522Z,0
2017-10-25T22:22:44.553Z,0
2017-10-25T22:23:54.240Z,0
2017-10-25T22:25:02.938Z,0
2017-10-25T22:26:11.967Z,0
2017-10-25T22:27:21.008Z,0
2017-10-25T22:28:30.370Z,0
2017-10-25T22:29:39.729Z,0
2017-10-25T22:30:49.089Z,0
2017-10-25T22:31:57.781Z,0
2017-10-25T22:33:06.813Z,0
2017-10-25T22:34:16.174Z,0
2017-10-25T22:35:26.204Z,0
2017-10-25T22:36:35.573Z,0
2017-10-25T22:37:44.603Z,0
2017-10-25T22:38:53.636Z,0
2017-10-25T22:40:02.674Z,0
2017-10-25T22:41:12.026Z,0
2017-10-25T22:42:20.726Z,0
2017-10-25T22:43:30.089Z,0
2017-10-25T22:44:39.116Z,0
2017-10-25T22:45:48.811Z,0
2017-10-25T22:46:57.503Z,0
2017-10-25T22:48:06.879Z,0
2017-10-25T22:49:16.577Z,0
2017-10-25T22:50:25.947Z,0
2017-10-25T22:51:34.642Z,0
2017-10-25T22:52:43.671Z,0
2017-10-25T22:53:52.703Z,0
2017-10-25T22:55:01.731Z,0
2017-10-25T22:56:11.433Z,0
2017-10-25T22:57:20.790Z,0
2017-10-25T22:58:30.155Z,0
2017-10-25T22:59:39.517Z,0
2017-10-25T23:00:48.544Z,0
2017-10-25T23:01:57.568Z,0
2017-10-25T23:03:07.268Z,0
2017-10-25T23:04:17.298Z,0
2017-10-25T23:05:26.663Z,0
2017-10-25T23:06:36.359Z,0
2017-10-25T23:07:46.398Z,0
2017-10-25T23:08:55.430Z,0
2017-10-25T23:10:04.802Z,0
2017-10-25T23:11:14.158Z,0
2017-10-25T23:12:22.855Z,0
2017-10-25T23:13:31.886Z,0
2017-10-25T23:14:40.923Z,0
2017-10-25T23:15:50.285Z,0
2017-10-25T23:16:58.979Z,0
2017-10-25T23:18:08.343Z,0
2017-10-25T23:19:17.709Z,0
2017-10-25T23:20:27.746Z,0
2017-10-25T23:21:37.105Z,0
2017-10-25T23:22:46.486Z,0
2017-10-25T23:23:55.522Z,0
2017-10-25T23:25:05.217Z,0
2017-10-25T23:26:14.574Z,0
2017-10-25T23:27:23.272Z,0
2017-10-25T23:28:31.967Z,0
2017-10-25T23:29:40.665Z,0
2017-10-25T23:30:49.696Z,0
2017-10-25T23:31:58.725Z,0
2017-10-25T23:33:08.089Z,0
2017-10-25T23:34:17.448Z,0
2017-10-25T23:35:26.487Z,0
2017-10-25T23:36:35.855Z,0
2017-10-25T23:37:44.885Z,0
2017-10-25T23:38:54.248Z,0
2017-10-25T23:40:03.279Z,0
2017-10-25T23:41:11.976Z,0
2017-10-25T23:42:20.673Z,0
2017-10-25T23:43:30.037Z,0
2017-10-25T23:44:39.396Z,0
2017-10-25T23:45:48.430Z,0
2017-10-25T23:46:57.789Z,0
2017-10-25T23:48:07.208Z,0
2017-10-25T23:49:16.238Z,0
2017-10-25T23:50:25.270Z,0
2017-10-25T23:51:34.626Z,0
2017-10-25T23:52:43.990Z,0
2017-10-25T23:53:52.685Z,0
2017-10-25T23:55:01.739Z,0
2017-10-25T23:56:10.766Z,0
2017-10-25T23:57:19.466Z,0
2017-10-25T23:58:28.829Z,0
2017-10-25T23:59:38.192Z,0
